»·PEaware :: N282BC KSAN-KBYS

N282BC :: KSAN-KBYS

FLIGHT INFORMATION

Flight Status: Arrived
Operator: Privately registered:
United States
More flights under this callsign
Pilot: Lev B. (11997)
Aircraft: CESSNA 208 CARAVAN
(C208)
More flights by this aircraft type
Origin: KSAN San Diego Intl-Lindbergh
United States
Destination: KBYS Bicycle Lake AAF
United States
More flights between these airports :: More routes between these airports
Route: +OCN V23 DANAH V363 POXKU V21 PDZ V442 APLES V210 BASAL V394 DISBE
File this flight plan on PilotEdge
Remarks:
Altitude:
(Current/Filed)
10,000ft
Speed:
(Current/Filed)
182kts
Departed: 14-Jan-20 02:35 PM
Arrived: 14-Jan-20 03:47 PM
Distance/Time
Traveled:
155nm/1:12
Distance/Time
To Go:
Arrived

Flight Plot

Page will automatically refresh every two minutes.


Map Options




Map Legend


Flown Route
Filed Route
Departure Airport
Arrival Airport
Navaid (VOR, NDB)
Fix

Horizontal Profiles

Position Reports

Time Latitude Longitude Heading Altitude Ground
Speed
14-Jan-20 14:09 32.732421 -117.176642 193 24ft 0kts
14-Jan-20 14:10 32.732421 -117.176642 193 24ft 0kts
14-Jan-20 14:11 32.732421 -117.176642 194 24ft 0kts
14-Jan-20 14:12 32.732421 -117.176642 193 24ft 0kts
14-Jan-20 14:14 32.732421 -117.176642 193 24ft 0kts
14-Jan-20 14:15 32.732421 -117.176642 193 24ft 0kts
14-Jan-20 14:16 32.732421 -117.176642 193 24ft 0kts
14-Jan-20 14:17 32.732421 -117.176642 193 24ft 0kts
14-Jan-20 14:18 32.732421 -117.176642 193 24ft 0kts
14-Jan-20 14:19 32.732421 -117.176642 193 24ft 0kts
14-Jan-20 14:20 32.732421 -117.176642 193 24ft 0kts
14-Jan-20 14:21 32.732421 -117.176642 193 24ft 0kts
14-Jan-20 14:22 32.732421 -117.176642 193 24ft 0kts
14-Jan-20 14:23 32.732421 -117.176642 193 24ft 0kts
14-Jan-20 14:24 32.732421 -117.176642 194 24ft 0kts
14-Jan-20 14:25 32.732421 -117.176642 194 24ft 0kts
14-Jan-20 14:26 32.732421 -117.176642 194 24ft 0kts
14-Jan-20 14:27 32.732421 -117.176642 194 24ft 0kts
14-Jan-20 14:28 32.732421 -117.176642 194 24ft 0kts
14-Jan-20 14:29 32.732421 -117.176642 194 24ft 0kts
14-Jan-20 14:30 32.732421 -117.176642 194 24ft 0kts
14-Jan-20 14:31 32.732421 -117.176642 194 24ft 0kts
14-Jan-20 14:32 32.731705 -117.176528 132 24ft 9kts
14-Jan-20 14:33 32.730962 -117.175587 139 24ft 0kts
14-Jan-20 14:34 32.730776 -117.175412 146 25ft 6kts
14-Jan-20 14:34 32.733163 -117.189599 283 363ft 124kts
14-Jan-20 14:36 32.763600 -117.222221 319 1867ft 126kts
14-Jan-20 14:37 32.793083 -117.249768 318 2813ft 134kts
14-Jan-20 14:37 32.817462 -117.272575 319 3728ft 133kts
14-Jan-20 14:39 32.850748 -117.303334 320 4999ft 128kts
14-Jan-20 14:39 32.873901 -117.324296 319 5949ft 124kts
14-Jan-20 14:40 32.904463 -117.341796 344 7054ft 123kts
14-Jan-20 14:42 32.943346 -117.350569 341 8327ft 117kts
14-Jan-20 14:42 32.970252 -117.356653 339 9258ft 112kts
14-Jan-20 14:43 33.001418 -117.363880 339 10004ft 130kts
14-Jan-20 14:44 33.041814 -117.372983 341 9970ft 154kts
14-Jan-20 14:45 33.084331 -117.382533 341 9969ft 156kts
14-Jan-20 14:46 33.124320 -117.391595 341 9970ft 156kts
14-Jan-20 14:47 33.168212 -117.401577 341 9970ft 156kts
14-Jan-20 14:48 33.210916 -117.411304 341 9970ft 156kts
14-Jan-20 14:49 33.248832 -117.429958 313 9972ft 147kts
14-Jan-20 14:50 33.278775 -117.463036 311 9970ft 146kts
14-Jan-20 14:51 33.308036 -117.496796 310 9976ft 146kts
14-Jan-20 14:52 33.336846 -117.530331 310 9975ft 146kts
14-Jan-20 14:53 33.365414 -117.563669 310 9975ft 145kts
14-Jan-20 14:54 33.393902 -117.596949 310 9975ft 145kts
14-Jan-20 14:55 33.422890 -117.630846 310 9975ft 145kts
14-Jan-20 14:56 33.451911 -117.664848 310 9981ft 150kts
14-Jan-20 14:57 33.484501 -117.696695 337 9980ft 162kts
14-Jan-20 14:58 33.528018 -117.706283 342 9982ft 165kts
14-Jan-20 14:59 33.572859 -117.714103 342 9979ft 165kts
14-Jan-20 15:00 33.615592 -117.721316 342 9980ft 165kts
14-Jan-20 15:01 33.654184 -117.727804 342 9979ft 164kts
14-Jan-20 15:02 33.691263 -117.739092 331 9979ft 160kts
14-Jan-20 15:03 33.724101 -117.754223 330 9980ft 159kts
14-Jan-20 15:04 33.763400 -117.736788 45 9979ft 193kts
14-Jan-20 15:05 33.801677 -117.682429 39 9981ft 192kts
14-Jan-20 15:06 33.839832 -117.632577 38 9980ft 192kts
14-Jan-20 15:07 33.881153 -117.578868 38 9981ft 192kts
14-Jan-20 15:08 33.919109 -117.531497 21 10013ft 182kts
14-Jan-20 15:09 33.963858 -117.503227 16 10019ft 181kts
14-Jan-20 15:10 34.009043 -117.476022 16 10019ft 182kts
14-Jan-20 15:11 34.054183 -117.448897 16 9992ft 182kts
14-Jan-20 15:12 34.098935 -117.421982 15 9992ft 182kts
14-Jan-20 15:13 34.143196 -117.395341 15 9994ft 182kts
14-Jan-20 15:14 34.187912 -117.368355 16 9994ft 183kts
14-Jan-20 15:15 34.232354 -117.341362 16 9988ft 182kts
14-Jan-20 15:16 34.277087 -117.314333 16 9987ft 182kts
14-Jan-20 15:17 34.322169 -117.287064 16 9987ft 182kts
14-Jan-20 15:18 34.367145 -117.259827 15 9995ft 182kts
14-Jan-20 15:19 34.412394 -117.232396 15 9975ft 183kts
14-Jan-20 15:20 34.458035 -117.204681 15 9968ft 182kts
14-Jan-20 15:21 34.503315 -117.177164 15 10049ft 181kts
14-Jan-20 15:22 34.548354 -117.148487 31 10044ft 191kts
14-Jan-20 15:23 34.584967 -117.099894 39 10050ft 195kts
14-Jan-20 15:24 34.621538 -117.049851 39 9921ft 200kts
14-Jan-20 15:25 34.657919 -116.999826 39 9915ft 196kts
14-Jan-20 15:26 34.694128 -116.950035 39 9915ft 196kts
14-Jan-20 15:27 34.730029 -116.900584 39 9916ft 196kts
14-Jan-20 15:28 34.766022 -116.850928 39 9916ft 196kts
14-Jan-20 15:29 34.803021 -116.799883 40 9525ft 209kts
14-Jan-20 15:30 34.840902 -116.747131 40 8828ft 204kts
14-Jan-20 15:31 34.877105 -116.696913 41 8130ft 191kts
14-Jan-20 15:32 34.911879 -116.648701 41 7440ft 188kts
14-Jan-20 15:33 34.946211 -116.600978 42 6920ft 182kts
14-Jan-20 15:34 34.980403 -116.556068 38 6916ft 179kts
14-Jan-20 15:35 35.015632 -116.512367 40 6919ft 181kts
14-Jan-20 15:36 35.050916 -116.468272 41 6919ft 181kts
14-Jan-20 15:37 35.085648 -116.424876 41 6917ft 171kts
14-Jan-20 15:38 35.120746 -116.394394 334 6927ft 143kts
14-Jan-20 15:39 35.148102 -116.424835 301 6918ft 131kts
14-Jan-20 15:40 35.171232 -116.459672 300 6918ft 131kts
14-Jan-20 15:41 35.194256 -116.494592 303 6889ft 132kts
14-Jan-20 15:42 35.221622 -116.522131 312 6296ft 123kts
14-Jan-20 15:43 35.247828 -116.549334 312 5765ft 131kts
14-Jan-20 15:44 35.278088 -116.583947 319 4386ft 163kts
14-Jan-20 15:45 35.297796 -116.607700 232 2717ft 100kts
14-Jan-20 15:46 35.287670 -116.622947 231 2347ft 24kts
14-Jan-20 15:47 35.281558 -116.632375 231 2344ft 43kts
14-Jan-20 15:48 35.275366 -116.640641 171 2344ft 20kts
14-Jan-20 15:49 35.270054 -116.634649 225 2348ft 9kts

Navigation Log

Ident Type
Flight plan parsing failed, navigation log unavailable